Time;durP1;ratioP1;P1;durP2;ratioP2;P2;SDS_P1;SDS_P2;PMS_P1;PMS_P2;Temp;Humidity;BMP_temperature;BMP_pressure;BME280_temperature;BME280_humidity;BME280_pressure;Samples;Min_cycle;Max_cycle;Signal;HPM_P1;HPM_P2
2023/02/10 00:00:19;;;;;;;16.45;8.75;;;3.30;99.90;;;;;;5062924;28;20049;-65
2023/02/10 00:02:45;;;;;;;24.60;9.38;;;3.30;99.90;;;;;;5066474;28;20055;-68
2023/02/10 00:05:12;;;;;;;30.33;9.85;;;3.30;99.90;;;;;;5062215;28;20052;-65
2023/02/10 00:07:39;;;;;;;18.75;8.60;;;3.40;99.90;;;;;;5057191;28;20102;-66
2023/02/10 00:10:06;;;;;;;26.60;9.80;;;3.40;99.90;;;;;;5061106;28;20048;-65
2023/02/10 00:12:37;;;;;;;26.85;9.35;;;3.40;99.90;;;;;;5062834;28;20410;-66
2023/02/10 00:15:05;;;;;;;21.85;8.95;;;3.40;99.90;;;;;;5064798;28;20131;-66
2023/02/10 00:17:31;;;;;;;26.10;10.10;;;3.40;99.90;;;;;;5062633;28;20513;-65
2023/02/10 00:19:58;;;;;;;8.23;1.40;;;3.20;99.90;;;;;;5061461;28;20054;-67
2023/02/10 00:22:25;;;;;;;2.05;0.70;;;2.70;99.90;;;;;;5062226;28;20525;-64
2023/02/10 00:24:52;;;;;;;7.30;1.50;;;2.20;99.90;;;;;;5063201;28;20483;-65
2023/02/10 00:27:23;;;;;;;6.18;1.17;;;2.00;99.90;;;;;;5061563;28;20123;-65
2023/02/10 00:29:51;;;;;;;3.80;1.08;;;1.90;99.90;;;;;;5062426;28;20076;-66
2023/02/10 00:32:18;;;;;;;10.88;2.88;;;1.90;99.90;;;;;;5061732;28;20055;-66
2023/02/10 00:34:45;;;;;;;5.05;1.35;;;2.10;99.90;;;;;;5061556;28;20499;-67
2023/02/10 00:37:12;;;;;;;6.82;1.13;;;2.30;99.90;;;;;;5064919;28;20131;-66
2023/02/10 00:39:39;;;;;;;6.18;1.13;;;2.50;99.90;;;;;;5059909;28;20415;-66
2023/02/10 00:42:06;;;;;;;6.22;1.40;;;2.60;99.90;;;;;;5062125;28;20045;-68
2023/02/10 00:44:34;;;;;;;3.88;1.33;;;2.80;99.90;;;;;;5064332;28;20072;-66
2023/02/10 00:47:02;;;;;;;2.35;0.73;;;2.80;99.90;;;;;;5062229;28;20051;-70
2023/02/10 00:49:29;;;;;;;4.88;0.85;;;2.90;99.90;;;;;;5063708;28;20368;-65
2023/02/10 00:51:57;;;;;;;6.15;1.58;;;2.80;99.90;;;;;;5059793;28;20044;-66
2023/02/10 00:54:24;;;;;;;4.30;1.05;;;2.80;99.90;;;;;;5062874;28;20048;-66
2023/02/10 00:56:51;;;;;;;9.65;1.73;;;2.80;99.90;;;;;;5061122;28;20040;-66
2023/02/10 00:59:19;;;;;;;10.75;1.40;;;2.90;99.90;;;;;;5059043;28;20044;-66
2023/02/10 01:01:46;;;;;;;9.15;2.35;;;2.90;99.90;;;;;;5059664;28;20131;-68
2023/02/10 01:04:13;;;;;;;11.70;1.55;;;2.90;99.90;;;;;;5060009;28;20624;-66
2023/02/10 01:06:41;;;;;;;3.85;0.88;;;2.90;99.90;;;;;;5061424;28;20075;-65
2023/02/10 01:09:08;;;;;;;11.68;1.27;;;2.90;99.90;;;;;;5062090;28;20083;-65
2023/02/10 01:11:34;;;;;;;8.55;1.52;;;2.90;99.90;;;;;;5061499;28;20140;-65
2023/02/10 01:14:02;;;;;;;9.68;1.90;;;2.90;99.90;;;;;;5051956;28;20045;-65
2023/02/10 01:16:28;;;;;;;15.23;2.67;;;2.90;99.90;;;;;;5065716;28;20131;-68
2023/02/10 01:18:58;;;;;;;11.68;3.53;;;2.90;99.90;;;;;;5059056;28;20056;-66
2023/02/10 01:21:24;;;;;;;11.82;2.85;;;2.90;99.90;;;;;;5061842;28;20045;-67
2023/02/10 01:23:51;;;;;;;10.68;3.00;;;3.00;99.90;;;;;;5058720;28;20045;-67
2023/02/10 01:26:18;;;;;;;9.43;1.80;;;3.10;99.90;;;;;;5062695;28;20154;-66
2023/02/10 01:28:45;;;;;;;18.40;2.45;;;3.10;99.90;;;;;;5059260;28;20064;-66
2023/02/10 01:31:15;;;;;;;16.23;2.40;;;3.30;99.90;;;;;;5063539;28;20049;-71
2023/02/10 01:33:42;;;;;;;15.40;2.90;;;3.30;99.90;;;;;;5073979;28;20037;-66
2023/02/10 01:36:14;;;;;;;8.63;1.58;;;3.40;99.90;;;;;;5061692;28;20037;-67
2023/02/10 01:38:41;;;;;;;13.45;2.72;;;3.40;99.90;;;;;;5061928;28;20394;-65
2023/02/10 01:41:09;;;;;;;12.63;2.63;;;3.40;99.90;;;;;;5064841;28;20056;-66
2023/02/10 01:44:06;;;;;;;6.88;1.38;;;3.50;99.90;;;;;;5060525;28;20047;-66
2023/02/10 01:46:35;;;;;;;12.10;1.80;;;3.40;99.90;;;;;;5074618;28;20041;-66
2023/02/10 01:49:09;;;;;;;8.75;1.67;;;3.40;99.90;;;;;;5058556;28;20068;-66
2023/02/10 01:51:50;;;;;;;12.85;2.55;;;3.30;99.90;;;;;;5063947;28;20056;-65
2023/02/10 01:54:24;;;;;;;16.33;2.75;;;3.30;99.90;;;;;;5056930;28;20053;-66
2023/02/10 01:56:52;;;;;;;8.48;2.15;;;3.30;99.90;;;;;;5059911;28;20135;-66
2023/02/10 01:59:20;;;;;;;10.23;1.80;;;3.30;99.90;;;;;;5059614;28;20218;-66
2023/02/10 02:01:49;;;;;;;3.72;1.40;;;3.30;99.90;;;;;;5055322;28;20148;-66
2023/02/10 02:04:17;;;;;;;8.30;1.92;;;3.30;99.90;;;;;;5076576;28;20047;-67
2023/02/10 02:06:45;;;;;;;10.15;1.70;;;3.30;99.90;;;;;;5061430;28;20470;-65
2023/02/10 02:09:12;;;;;;;6.50;1.42;;;3.30;99.90;;;;;;5071332;28;20191;-67
2023/02/10 02:11:51;;;;;;;6.55;2.90;;;3.40;99.90;;;;;;5062207;28;20044;-67
2023/02/10 02:14:18;;;;;;;7.38;1.20;;;3.40;99.90;;;;;;5056855;28;20480;-69
2023/02/10 02:16:53;;;;;;;8.25;1.33;;;3.40;99.90;;;;;;5058161;28;20052;-70
2023/02/10 02:19:50;;;;;;;11.98;1.85;;;3.40;99.90;;;;;;5061907;28;20512;-65
2023/02/10 02:22:51;;;;;;;7.60;1.33;;;3.40;99.90;;;;;;5057023;28;20072;-66
2023/02/10 02:25:30;;;;;;;8.60;1.83;;;3.40;99.90;;;;;;5059559;28;20542;-66
2023/02/10 02:28:34;;;;;;;3.67;1.17;;;3.40;99.90;;;;;;5057540;28;20067;-65
2023/02/10 02:31:28;;;;;;;7.97;1.65;;;3.40;99.90;;;;;;5055322;28;20127;-65
2023/02/10 02:34:02;;;;;;;8.77;2.10;;;3.40;99.90;;;;;;5058228;28;20053;-65
2023/02/10 02:36:41;;;;;;;7.18;2.15;;;3.40;99.90;;;;;;5058625;28;20406;-65
2023/02/10 02:39:08;;;;;;;8.40;1.60;;;3.30;99.90;;;;;;5055156;28;20642;-66
2023/02/10 02:41:35;;;;;;;3.78;1.77;;;3.30;99.90;;;;;;5057707;28;20554;-66
2023/02/10 02:44:05;;;;;;;7.43;2.85;;;3.30;99.90;;;;;;5054667;28;20596;-64
2023/02/10 02:47:07;;;;;;;9.57;1.35;;;3.40;99.90;;;;;;5053265;28;20041;-65
2023/02/10 02:49:54;;;;;;;2.28;1.40;;;3.40;99.90;;;;;;5057913;28;20140;-64
2023/02/10 02:52:31;;;;;;;11.43;1.83;;;3.50;99.90;;;;;;5062228;28;20123;-67
2023/02/10 02:55:06;;;;;;;6.55;1.10;;;3.50;99.90;;;;;;5054336;28;20051;-65
2023/02/10 02:57:51;;;;;;;6.00;1.48;;;3.40;99.90;;;;;;5057043;28;20072;-65
2023/02/10 03:00:25;;;;;;;8.55;4.32;;;3.40;99.90;;;;;;5053396;28;20048;-71
2023/02/10 03:02:53;;;;;;;9.70;1.50;;;3.30;99.90;;;;;;5061828;28;20079;-64
2023/02/10 03:05:23;;;;;;;7.47;2.15;;;3.30;99.90;;;;;;5061542;28;20188;-64
2023/02/10 03:07:50;;;;;;;9.68;2.20;;;3.30;99.90;;;;;;5059834;28;20052;-65
2023/02/10 03:10:17;;;;;;;3.78;1.77;;;3.20;99.90;;;;;;5062955;28;20063;-71
2023/02/10 03:12:44;;;;;;;11.43;1.63;;;3.20;99.90;;;;;;5061624;28;20126;-68
2023/02/10 03:15:11;;;;;;;7.47;1.10;;;3.20;99.90;;;;;;5057467;28;20490;-68
2023/02/10 03:17:38;;;;;;;9.07;1.90;;;3.20;99.90;;;;;;5057427;28;20466;-66
2023/02/10 03:20:05;;;;;;;4.25;1.20;;;3.20;99.90;;;;;;5058719;28;20044;-65
2023/02/10 03:22:32;;;;;;;13.35;2.65;;;3.30;99.90;;;;;;5062025;28;20063;-65
2023/02/10 03:24:59;;;;;;;8.00;1.65;;;3.30;99.90;;;;;;5073437;28;20067;-66
2023/02/10 03:27:26;;;;;;;3.78;0.75;;;3.20;99.90;;;;;;5056746;28;20132;-68
2023/02/10 03:29:53;;;;;;;4.57;0.93;;;3.20;99.90;;;;;;5055543;28;20053;-65
2023/02/10 03:32:20;;;;;;;10.82;2.13;;;3.20;99.90;;;;;;5054624;28;20040;-68
2023/02/10 03:34:47;;;;;;;5.63;1.90;;;3.20;99.90;;;;;;5061705;28;20410;-66
2023/02/10 03:37:13;;;;;;;10.55;1.75;;;3.20;99.90;;;;;;5057841;28;20150;-66
2023/02/10 03:39:40;;;;;;;6.22;0.93;;;3.20;99.90;;;;;;5051751;28;20045;-66
2023/02/10 03:42:07;;;;;;;4.35;0.80;;;3.20;99.90;;;;;;5054281;28;20080;-66
2023/02/10 03:44:34;;;;;;;6.18;1.58;;;3.20;99.90;;;;;;5055388;28;20040;-67
2023/02/10 03:47:01;;;;;;;3.70;0.63;;;3.20;99.90;;;;;;5053262;28;20150;-67
2023/02/10 03:49:27;;;;;;;7.63;1.08;;;3.10;99.90;;;;;;5058640;28;20498;-66
2023/02/10 03:51:54;;;;;;;4.65;1.02;;;3.10;99.90;;;;;;5063436;28;20039;-65
2023/02/10 03:54:21;;;;;;;5.63;1.33;;;3.10;99.90;;;;;;5063046;28;21149;-67
2023/02/10 03:56:48;;;;;;;7.57;2.50;;;3.10;99.90;;;;;;5062605;28;20041;-69
2023/02/10 03:59:15;;;;;;;5.70;0.60;;;3.10;99.90;;;;;;5063585;28;20140;-65
2023/02/10 04:01:42;;;;;;;7.03;1.70;;;3.10;99.90;;;;;;5062668;28;20406;-67
2023/02/10 04:04:09;;;;;;;7.22;1.23;;;3.10;99.90;;;;;;5060205;28;20041;-66
2023/02/10 04:06:35;;;;;;;9.23;1.08;;;3.10;99.90;;;;;;5063043;28;20048;-67
2023/02/10 04:09:02;;;;;;;5.85;1.10;;;3.00;99.90;;;;;;5060237;28;20495;-72
2023/02/10 04:11:29;;;;;;;4.93;2.35;;;3.00;99.90;;;;;;5059826;28;20462;-65
2023/02/10 04:13:56;;;;;;;17.50;2.03;;;3.00;99.90;;;;;;5062689;28;20047;-66
2023/02/10 04:16:27;;;;;;;6.13;1.40;;;3.00;99.90;;;;;;5062906;28;20474;-69
2023/02/10 04:18:54;;;;;;;4.80;0.77;;;3.00;99.90;;;;;;5066522;28;20837;-68
2023/02/10 04:21:21;;;;;;;5.90;1.98;;;3.00;99.90;;;;;;5060005;28;20052;-65
2023/02/10 04:23:48;;;;;;;7.55;1.45;;;3.10;99.90;;;;;;5061586;28;20048;-65
2023/02/10 04:26:15;;;;;;;4.18;0.70;;;3.10;99.90;;;;;;5065361;28;20570;-66
2023/02/10 04:28:42;;;;;;;5.93;1.65;;;3.10;99.90;;;;;;5064614;28;20052;-65
2023/02/10 04:31:09;;;;;;;3.95;1.17;;;3.00;99.90;;;;;;5061975;28;20051;-68
2023/02/10 04:33:36;;;;;;;3.30;0.93;;;2.90;99.90;;;;;;5062226;28;20048;-66
2023/02/10 04:36:04;;;;;;;6.57;2.15;;;3.00;99.90;;;;;;5063262;28;20136;-65
2023/02/10 04:38:31;;;;;;;5.72;1.08;;;3.00;99.90;;;;;;5062251;28;20498;-72
2023/02/10 04:40:58;;;;;;;5.25;0.75;;;2.90;99.90;;;;;;5063961;28;20135;-66
2023/02/10 04:43:25;;;;;;;8.50;1.15;;;3.00;99.90;;;;;;5062743;28;20139;-67
2023/02/10 04:45:51;;;;;;;8.65;0.73;;;2.90;99.90;;;;;;5063181;28;20048;-68
2023/02/10 04:48:20;;;;;;;6.90;0.90;;;2.90;99.90;;;;;;5062282;28;20048;-68
2023/02/10 04:50:48;;;;;;;3.33;1.25;;;2.90;99.90;;;;;;5060532;28;20379;-68
2023/02/10 04:53:14;;;;;;;5.70;0.75;;;2.90;99.90;;;;;;5060576;28;20064;-65
2023/02/10 04:55:41;;;;;;;2.13;0.95;;;2.90;99.90;;;;;;5060559;28;20131;-65
2023/02/10 04:58:08;;;;;;;2.90;1.38;;;2.90;99.90;;;;;;5059623;28;20553;-65
2023/02/10 05:00:35;;;;;;;6.50;1.95;;;2.90;99.90;;;;;;5060347;28;20048;-68
2023/02/10 05:03:02;;;;;;;5.05;1.30;;;2.90;99.90;;;;;;5062553;28;20426;-65
2023/02/10 05:05:29;;;;;;;7.40;2.10;;;2.90;99.90;;;;;;5059785;28;20048;-65
2023/02/10 05:07:56;;;;;;;6.30;1.08;;;2.90;99.90;;;;;;5061805;28;20489;-65
2023/02/10 05:10:23;;;;;;;6.68;1.17;;;2.80;99.90;;;;;;5064252;28;20044;-65
2023/02/10 05:12:50;;;;;;;5.50;1.00;;;2.80;99.90;;;;;;5059866;28;20152;-66
2023/02/10 05:15:17;;;;;;;10.23;1.42;;;2.80;99.90;;;;;;5058259;28;20425;-66
2023/02/10 05:17:44;;;;;;;6.05;1.67;;;2.80;99.90;;;;;;5055625;28;20498;-66
2023/02/10 05:20:11;;;;;;;5.70;1.05;;;2.80;99.90;;;;;;5060187;28;20041;-67
2023/02/10 05:22:38;;;;;;;9.70;1.83;;;2.80;99.90;;;;;;5057230;28;20394;-67
2023/02/10 05:25:06;;;;;;;5.43;1.35;;;2.80;99.90;;;;;;5060801;28;20048;-68
2023/02/10 05:27:34;;;;;;;6.45;1.55;;;2.80;99.90;;;;;;5060086;28;20478;-66
2023/02/10 05:30:03;;;;;;;7.45;0.98;;;2.70;99.90;;;;;;5055429;28;20407;-69
2023/02/10 05:32:30;;;;;;;11.85;2.67;;;2.70;99.90;;;;;;5064021;28;20139;-66
2023/02/10 05:34:57;;;;;;;9.95;1.13;;;2.70;99.90;;;;;;5063457;28;20113;-66
2023/02/10 05:37:24;;;;;;;3.72;0.77;;;2.70;99.90;;;;;;5059043;28;20102;-67
2023/02/10 05:39:51;;;;;;;6.57;2.90;;;2.70;99.90;;;;;;5061377;28;20049;-64
2023/02/10 05:42:18;;;;;;;13.48;2.90;;;2.70;99.90;;;;;;5061206;28;20132;-63
2023/02/10 05:44:45;;;;;;;7.38;0.73;;;2.70;99.90;;;;;;5062434;28;20063;-62
2023/02/10 05:47:12;;;;;;;6.50;2.15;;;2.70;99.90;;;;;;5060093;28;20153;-63
2023/02/10 05:49:39;;;;;;;4.57;1.15;;;2.70;99.90;;;;;;5062771;28;20048;-65
2023/02/10 05:52:06;;;;;;;2.80;0.75;;;2.70;99.90;;;;;;5060153;28;20423;-68
2023/02/10 05:54:33;;;;;;;3.08;0.93;;;2.70;99.90;;;;;;5057184;28;20405;-63
2023/02/10 05:56:59;;;;;;;3.33;1.23;;;2.70;99.90;;;;;;5058671;28;20055;-65
2023/02/10 05:59:26;;;;;;;4.45;0.75;;;2.60;99.90;;;;;;5058861;28;20041;-66
2023/02/10 06:01:53;;;;;;;8.43;1.38;;;2.70;99.90;;;;;;5058119;28;20782;-63
2023/02/10 06:04:20;;;;;;;10.57;2.65;;;2.70;99.90;;;;;;5061126;28;20713;-62
2023/02/10 06:06:47;;;;;;;4.60;1.50;;;2.60;99.90;;;;;;5061510;28;20170;-63
2023/02/10 06:09:14;;;;;;;4.93;1.73;;;2.60;99.90;;;;;;5061414;28;20135;-63
2023/02/10 06:11:41;;;;;;;1.58;0.60;;;2.60;99.90;;;;;;5059481;28;20040;-62
2023/02/10 06:14:08;;;;;;;7.72;2.05;;;2.60;99.90;;;;;;5060051;28;20047;-65
2023/02/10 06:16:35;;;;;;;4.35;0.75;;;2.60;99.90;;;;;;5061071;28;20052;-61
2023/02/10 06:19:03;;;;;;;4.65;1.40;;;2.60;99.90;;;;;;5061002;28;20636;-63
2023/02/10 06:21:30;;;;;;;4.07;1.30;;;2.60;99.90;;;;;;5062235;28;20075;-63
2023/02/10 06:23:57;;;;;;;5.22;1.23;;;2.60;99.90;;;;;;5058598;28;20561;-63
2023/02/10 06:26:24;;;;;;;5.80;0.77;;;2.60;99.90;;;;;;5061334;28;20049;-63
2023/02/10 06:28:51;;;;;;;7.15;1.25;;;2.60;99.90;;;;;;5049967;28;20063;-63
2023/02/10 06:31:17;;;;;;;4.72;0.82;;;2.60;99.90;;;;;;5057244;28;20072;-64
2023/02/10 06:33:44;;;;;;;5.00;1.10;;;2.60;99.90;;;;;;5056318;28;20069;-67
2023/02/10 06:36:11;;;;;;;2.85;1.00;;;2.60;99.90;;;;;;5054018;28;20047;-71
2023/02/10 06:38:39;;;;;;;7.28;1.38;;;2.60;99.90;;;;;;5056588;28;20056;-63
2023/02/10 06:41:07;;;;;;;4.43;1.27;;;2.60;99.90;;;;;;5056490;28;20059;-64
2023/02/10 06:43:34;;;;;;;4.75;0.75;;;2.60;99.90;;;;;;5061713;28;20380;-66
2023/02/10 06:46:00;;;;;;;4.55;0.88;;;2.60;99.90;;;;;;5058829;28;20044;-71
2023/02/10 06:48:27;;;;;;;4.18;1.63;;;2.60;99.90;;;;;;5060735;28;20151;-66
2023/02/10 06:50:54;;;;;;;3.63;1.17;;;2.60;99.90;;;;;;5060862;28;20049;-69
2023/02/10 06:53:21;;;;;;;5.30;0.73;;;2.60;99.90;;;;;;5058101;28;20047;-67
2023/02/10 06:55:48;;;;;;;6.43;1.02;;;2.60;99.90;;;;;;5059437;28;20048;-67
2023/02/10 06:58:16;;;;;;;2.97;1.00;;;2.60;99.90;;;;;;5060264;28;20052;-63
2023/02/10 07:00:43;;;;;;;4.35;1.13;;;2.60;99.90;;;;;;5057225;28;20045;-64
2023/02/10 07:03:13;;;;;;;7.80;1.58;;;2.60;99.90;;;;;;5048117;28;20052;-68
2023/02/10 07:05:40;;;;;;;10.95;0.75;;;2.60;99.90;;;;;;5057216;28;20052;-65
2023/02/10 07:08:07;;;;;;;6.20;1.63;;;2.60;99.90;;;;;;5060644;28;20040;-65
2023/02/10 07:10:34;;;;;;;3.63;0.80;;;2.60;99.90;;;;;;5067182;28;20091;-64
2023/02/10 07:13:02;;;;;;;6.05;0.98;;;2.60;99.90;;;;;;5062997;28;20545;-69
2023/02/10 07:15:28;;;;;;;7.05;1.98;;;2.60;99.90;;;;;;5061307;28;20072;-66
2023/02/10 07:17:55;;;;;;;9.10;1.85;;;2.60;99.90;;;;;;5061300;28;20072;-64
2023/02/10 07:20:23;;;;;;;7.30;1.17;;;2.60;99.90;;;;;;5057654;28;20051;-65
2023/02/10 07:22:51;;;;;;;4.78;1.52;;;2.60;99.90;;;;;;5059403;28;20462;-62
2023/02/10 07:25:18;;;;;;;6.53;0.95;;;2.60;99.90;;;;;;5061919;28;20770;-64
2023/02/10 07:27:45;;;;;;;6.47;0.50;;;2.60;99.90;;;;;;5063456;28;20076;-65
2023/02/10 07:30:12;;;;;;;5.78;0.80;;;2.60;99.90;;;;;;5063654;28;20510;-63
2023/02/10 07:32:41;;;;;;;3.72;0.60;;;2.60;99.90;;;;;;5063281;28;20044;-64
2023/02/10 07:35:09;;;;;;;9.43;0.80;;;2.60;99.90;;;;;;5060389;28;20060;-66
2023/02/10 07:37:36;;;;;;;3.53;0.98;;;2.60;99.90;;;;;;5060099;28;20102;-63
2023/02/10 07:40:04;;;;;;;4.88;1.90;;;2.60;99.90;;;;;;5057762;28;20072;-65
2023/02/10 07:42:34;;;;;;;6.03;0.95;;;2.60;99.90;;;;;;5062863;28;20090;-63
2023/02/10 07:45:17;;;;;;;7.78;0.60;;;2.60;99.90;;;;;;5062876;28;20052;-62
2023/02/10 07:47:44;;;;;;;5.35;1.00;;;2.60;99.90;;;;;;5063566;28;20056;-67
2023/02/10 07:50:11;;;;;;;5.72;2.00;;;2.60;99.90;;;;;;5065065;28;20040;-67
2023/02/10 07:52:40;;;;;;;7.72;0.93;;;2.60;99.90;;;;;;5062875;28;20130;-63
2023/02/10 07:55:07;;;;;;;3.70;0.80;;;2.60;99.90;;;;;;5059408;28;20511;-67
2023/02/10 07:57:35;;;;;;;1.80;0.85;;;2.60;99.90;;;;;;5060765;28;20487;-64
2023/02/10 08:00:02;;;;;;;6.43;1.05;;;2.60;99.90;;;;;;5055708;28;20044;-63
2023/02/10 08:02:38;;;;;;;3.35;0.90;;;2.60;99.90;;;;;;5060396;28;20136;-65
2023/02/10 08:05:06;;;;;;;4.80;1.35;;;2.60;99.90;;;;;;5065561;28;20043;-62
2023/02/10 08:07:33;;;;;;;3.38;0.73;;;2.70;99.90;;;;;;5061178;28;20044;-62
2023/02/10 08:09:59;;;;;;;5.80;0.88;;;2.60;99.90;;;;;;5061559;28;20140;-63
2023/02/10 08:12:26;;;;;;;3.67;0.93;;;2.60;99.90;;;;;;5064240;28;20040;-65
2023/02/10 08:14:53;;;;;;;7.22;1.00;;;2.60;99.90;;;;;;5065948;28;20055;-62
2023/02/10 08:17:20;;;;;;;3.78;0.93;;;2.60;99.90;;;;;;5065718;28;20056;-65
2023/02/10 08:19:47;;;;;;;2.42;0.98;;;2.60;99.90;;;;;;5061058;28;20556;-64
2023/02/10 08:22:14;;;;;;;5.22;0.80;;;2.60;99.90;;;;;;5061041;28;20048;-63
2023/02/10 08:24:41;;;;;;;7.50;1.15;;;2.70;99.90;;;;;;5064230;28;20047;-61
2023/02/10 08:27:07;;;;;;;4.22;1.02;;;2.70;99.90;;;;;;5057878;28;20529;-62
2023/02/10 08:29:37;;;;;;;6.35;1.42;;;2.70;99.90;;;;;;5063204;28;20540;-65
2023/02/10 08:32:04;;;;;;;3.08;0.98;;;2.60;99.90;;;;;;5058469;28;20052;-62
2023/02/10 08:34:33;;;;;;;4.57;1.58;;;2.70;99.90;;;;;;5066589;28;20476;-65
2023/02/10 08:37:00;;;;;;;8.32;1.33;;;2.70;99.90;;;;;;5054314;28;21225;-67
2023/02/10 08:39:28;;;;;;;2.85;0.77;;;2.70;99.90;;;;;;5063639;28;20044;-62
2023/02/10 08:41:55;;;;;;;5.53;1.48;;;2.70;99.90;;;;;;5055825;28;20131;-63
2023/02/10 08:44:22;;;;;;;7.95;1.65;;;2.70;99.90;;;;;;5064498;28;20050;-70
2023/02/10 08:46:49;;;;;;;7.95;1.50;;;2.60;99.90;;;;;;5061839;28;20064;-70
2023/02/10 08:49:16;;;;;;;6.18;0.90;;;2.70;99.90;;;;;;5061745;28;20048;-63
2023/02/10 08:51:43;;;;;;;9.88;2.55;;;2.70;99.90;;;;;;5059603;28;20363;-69
2023/02/10 08:54:10;;;;;;;7.80;1.58;;;2.70;99.90;;;;;;5060597;28;20049;-68
2023/02/10 08:56:37;;;;;;;2.90;1.35;;;2.70;99.90;;;;;;5064421;28;20127;-65
2023/02/10 08:59:04;;;;;;;8.48;1.13;;;2.70;99.90;;;;;;5059104;28;20044;-70
2023/02/10 09:01:31;;;;;;;2.92;0.82;;;2.80;99.90;;;;;;5059170;28;20068;-63
2023/02/10 09:03:58;;;;;;;3.58;1.30;;;2.80;99.90;;;;;;5055355;28;20076;-66
2023/02/10 09:06:40;;;;;;;4.47;1.70;;;2.80;99.90;;;;;;5060297;28;20405;-63
2023/02/10 09:09:08;;;;;;;2.45;1.10;;;2.80;99.90;;;;;;5058461;28;20097;-63
2023/02/10 09:11:35;;;;;;;8.20;1.60;;;2.80;99.90;;;;;;5059309;28;20398;-65
2023/02/10 09:14:02;;;;;;;3.42;0.93;;;2.80;99.90;;;;;;5056386;28;20072;-69
2023/02/10 09:16:29;;;;;;;7.32;1.65;;;2.80;99.90;;;;;;5065785;28;20128;-63
2023/02/10 09:18:56;;;;;;;4.72;1.02;;;2.80;99.90;;;;;;5062013;28;20055;-63
2023/02/10 09:21:24;;;;;;;3.65;1.25;;;2.80;99.90;;;;;;5063539;28;20506;-67
2023/02/10 09:23:53;;;;;;;3.97;0.45;;;2.80;99.90;;;;;;5060521;28;20045;-66
2023/02/10 09:26:20;;;;;;;4.22;0.68;;;2.80;99.90;;;;;;5062394;28;20063;-62
2023/02/10 09:28:47;;;;;;;6.35;1.00;;;2.80;99.90;;;;;;5055199;28;20061;-66
2023/02/10 09:31:17;;;;;;;5.90;0.63;;;2.80;99.90;;;;;;5064284;28;20482;-63
2023/02/10 09:33:44;;;;;;;4.88;0.85;;;2.80;99.90;;;;;;5058864;28;20044;-67
2023/02/10 09:36:17;;;;;;;3.60;0.70;;;2.80;99.90;;;;;;5056836;28;20045;-65
2023/02/10 09:38:44;;;;;;;4.10;0.60;;;2.80;99.90;;;;;;5061433;28;20054;-68
2023/02/10 09:41:33;;;;;;;7.63;1.35;;;2.80;99.90;;;;;;5060803;28;20083;-67
2023/02/10 09:44:18;;;;;;;7.32;0.95;;;2.80;99.90;;;;;;5058926;28;20044;-70
2023/02/10 09:47:16;;;;;;;6.78;2.28;;;2.80;99.90;;;;;;5060537;28;20754;-69
2023/02/10 09:50:04;;;;;;;7.15;1.35;;;2.80;99.90;;;;;;5060635;28;20064;-64
2023/02/10 09:52:46;;;;;;;3.08;0.70;;;2.80;99.90;;;;;;5058737;28;20048;-62
2023/02/10 09:55:19;;;;;;;7.60;1.35;;;2.80;99.90;;;;;;5060725;28;20713;-64
2023/02/10 09:57:51;;;;;;;3.45;1.02;;;2.80;99.90;;;;;;5054269;28;20149;-64
2023/02/10 10:00:42;;;;;;;9.45;1.13;;;2.90;99.90;;;;;;5060174;28;20049;-67
2023/02/10 10:03:16;;;;;;;5.47;1.55;;;2.90;99.90;;;;;;5076304;28;20109;-63
2023/02/10 10:05:56;;;;;;;4.35;1.10;;;2.90;99.90;;;;;;5061851;28;20090;-62
2023/02/10 10:08:57;;;;;;;2.97;0.98;;;2.90;99.90;;;;;;5057270;28;20041;-63
2023/02/10 10:11:24;;;;;;;2.00;0.68;;;2.90;99.90;;;;;;5063100;28;20054;-64
2023/02/10 10:13:54;;;;;;;5.18;1.05;;;2.80;99.90;;;;;;5060670;28;20048;-68
2023/02/10 10:16:41;;;;;;;3.45;1.05;;;2.90;99.90;;;;;;5062968;28;20139;-62
2023/02/10 10:19:44;;;;;;;8.60;1.73;;;2.90;99.90;;;;;;5063906;28;20094;-65
2023/02/10 10:22:32;;;;;;;4.90;0.75;;;2.80;99.90;;;;;;5060708;28;20048;-71
2023/02/10 10:25:07;;;;;;;8.07;1.40;;;2.90;99.90;;;;;;5063358;28;20058;-66
2023/02/10 10:27:52;;;;;;;6.13;0.82;;;2.90;99.90;;;;;;5058216;28;20072;-64
2023/02/10 10:30:38;;;;;;;2.38;1.02;;;2.90;99.90;;;;;;5056660;28;20053;-64
2023/02/10 10:33:55;;;;;;;12.02;4.60;;;3.00;99.90;;;;;;5060038;28;20414;-64
2023/02/10 10:36:38;;;;;;;4.88;1.00;;;2.90;99.90;;;;;;5048466;28;20041;-63
2023/02/10 10:39:28;;;;;;;9.20;1.77;;;3.00;99.90;;;;;;5059211;28;20072;-65
2023/02/10 10:42:00;;;;;;;13.20;1.10;;;3.00;99.90;;;;;;5055997;28;20040;-66
2023/02/10 10:44:30;;;;;;;8.80;0.82;;;3.00;99.90;;;;;;5057165;28;20163;-64
2023/02/10 10:47:12;;;;;;;;;;;3.00;99.90;;;;;;5061654;28;20044;-64
2023/02/10 10:49:39;;;;;;;9.25;2.08;;;3.00;99.90;;;;;;5057815;28;20342;-63
2023/02/10 10:52:27;;;;;;;6.22;0.98;;;3.00;99.90;;;;;;5060262;28;20086;-64
2023/02/10 10:54:55;;;;;;;3.83;1.25;;;3.00;99.90;;;;;;5059181;28;20083;-64
2023/02/10 10:57:24;;;;;;;4.45;0.60;;;3.00;99.90;;;;;;5061151;28;20045;-69
2023/02/10 11:00:21;;;;;;;3.60;0.82;;;3.00;99.90;;;;;;5061887;28;20094;-66
2023/02/10 11:02:59;;;;;;;7.78;0.85;;;3.00;99.90;;;;;;5063299;28;20075;-68
2023/02/10 11:05:30;;;;;;;2.25;1.38;;;3.00;99.90;;;;;;5067269;28;20044;-63
2023/02/10 11:07:57;;;;;;;5.00;1.20;;;3.00;99.90;;;;;;5063427;28;20538;-71
2023/02/10 11:10:35;;;;;;;9.85;2.03;;;3.00;99.90;;;;;;5066594;28;20110;-73
2023/02/10 11:13:03;;;;;;;3.65;1.35;;;3.00;99.90;;;;;;5063385;28;20044;-65
2023/02/10 11:15:41;;;;;;;3.30;0.98;;;3.00;99.90;;;;;;5065856;28;20528;-66
2023/02/10 11:18:17;;;;;;;10.45;1.85;;;3.00;99.90;;;;;;5066483;28;20052;-63
2023/02/10 11:21:04;;;;;;;4.68;1.17;;;3.00;99.90;;;;;;5063531;28;20058;-75
2023/02/10 11:23:30;;;;;;;5.70;0.95;;;3.00;99.90;;;;;;5064303;28;20279;-69
2023/02/10 11:26:06;;;;;;;7.32;1.30;;;3.00;99.90;;;;;;5058964;28;20413;-65
2023/02/10 11:28:35;;;;;;;4.13;1.08;;;3.10;99.90;;;;;;5061116;28;20098;-65
2023/02/10 11:31:20;;;;;;;8.07;1.47;;;3.00;99.90;;;;;;5050809;28;20049;-66
2023/02/10 11:33:58;;;;;;;4.50;1.30;;;3.00;99.90;;;;;;5059608;28;20078;-69
2023/02/10 11:36:39;;;;;;;7.88;1.63;;;3.00;99.90;;;;;;5066208;28;20523;-65
2023/02/10 11:39:25;;;;;;;6.25;1.08;;;3.10;99.90;;;;;;5061314;28;20048;-67
2023/02/10 11:41:52;;;;;;;8.15;1.73;;;3.10;99.90;;;;;;5065213;28;20060;-67
2023/02/10 11:44:26;;;;;;;10.32;1.23;;;3.00;99.90;;;;;;5061793;28;20049;-67
2023/02/10 11:47:03;;;;;;;9.90;1.30;;;3.10;99.90;;;;;;5065317;28;20044;-67
2023/02/10 11:49:34;;;;;;;13.20;1.00;;;3.10;99.90;;;;;;5068709;28;20047;-65
2023/02/10 11:52:03;;;;;;;4.40;0.50;;;3.10;99.90;;;;;;5061272;28;20231;-64
2023/02/10 11:54:30;;;;;;;6.72;1.48;;;3.10;99.90;;;;;;5067646;28;20046;-65
2023/02/10 12:00:07;;;;;;;7.13;1.10;;;3.20;99.90;;;;;;5046951;28;20052;-65
2023/02/10 12:03:06;;;;;;;6.45;1.15;;;3.20;99.90;;;;;;5065245;28;20744;-68
2023/02/10 12:06:03;;;;;;;6.18;1.38;;;3.30;99.90;;;;;;5065117;28;20051;-65
2023/02/10 12:08:50;;;;;;;12.05;1.75;;;3.20;99.90;;;;;;5064032;28;20444;-66
2023/02/10 12:11:28;;;;;;;5.68;0.85;;;3.30;99.90;;;;;;5062551;28;20136;-65
2023/02/10 12:14:20;;;;;;;4.38;1.27;;;3.20;99.90;;;;;;5061313;28;20498;-65
2023/02/10 12:16:59;;;;;;;6.63;1.40;;;3.20;99.90;;;;;;5062377;28;20274;-71
2023/02/10 12:19:39;;;;;;;10.57;1.92;;;3.20;99.90;;;;;;5063510;28;20049;-65
2023/02/10 12:22:16;;;;;;;6.47;1.33;;;3.20;99.90;;;;;;5059265;28;20037;-67
2023/02/10 12:24:48;;;;;;;6.82;1.60;;;3.20;99.90;;;;;;5060124;28;20136;-67
2023/02/10 12:27:39;;;;;;;12.13;4.45;;;3.30;99.90;;;;;;5064343;28;20140;-68
2023/02/10 12:30:30;;;;;;;6.28;1.50;;;3.30;99.90;;;;;;5064860;28;20063;-65
2023/02/10 12:33:05;;;;;;;11.40;1.35;;;3.30;99.90;;;;;;5065078;28;20061;-66
2023/02/10 12:35:38;;;;;;;4.28;1.17;;;3.30;99.90;;;;;;5059855;28;20049;-66
2023/02/10 12:38:14;;;;;;;5.20;3.70;;;3.30;99.90;;;;;;5057715;28;20041;-65
2023/02/10 12:41:06;;;;;;;13.93;1.20;;;3.40;99.90;;;;;;5063016;28;20478;-66
2023/02/10 12:43:53;;;;;;;2.83;1.08;;;3.40;99.90;;;;;;5065569;28;20040;-64
2023/02/10 12:46:55;;;;;;;9.02;1.65;;;3.30;99.90;;;;;;5061212;28;20085;-70
2023/02/10 12:49:41;;;;;;;6.35;2.22;;;3.40;99.90;;;;;;5052285;28;20387;-66
2023/02/10 12:52:23;;;;;;;5.00;1.33;;;3.40;99.90;;;;;;5061054;28;20534;-65
2023/02/10 12:55:00;;;;;;;9.73;1.95;;;3.40;99.90;;;;;;5065343;28;20041;-68
2023/02/10 12:57:33;;;;;;;18.50;3.55;;;3.40;99.90;;;;;;5066170;28;20059;-67
2023/02/10 13:00:24;;;;;;;7.72;1.60;;;3.40;99.90;;;;;;5060000;28;20063;-67
2023/02/10 13:02:56;;;;;;;4.88;1.52;;;3.40;99.90;;;;;;5062101;28;20335;-70
2023/02/10 13:05:46;;;;;;;6.68;1.60;;;3.40;99.90;;;;;;5059270;28;20097;-66
2023/02/10 13:08:43;;;;;;;9.57;1.58;;;3.30;99.90;;;;;;5052155;28;20508;-70
2023/02/10 13:11:25;;;;;;;2.58;1.13;;;3.30;99.90;;;;;;5062977;28;20106;-70
2023/02/10 13:13:53;;;;;;;4.97;0.88;;;3.30;99.90;;;;;;5063193;28;20155;-66
2023/02/10 13:16:26;;;;;;;11.02;1.63;;;3.30;99.90;;;;;;5059741;28;20055;-68
2023/02/10 13:18:58;;;;;;;9.23;1.42;;;3.20;99.90;;;;;;5063761;28;20054;-72
2023/02/10 13:21:31;;;;;;;4.30;1.42;;;3.30;99.90;;;;;;5063699;28;20053;-68